Time;durP1;ratioP1;P1;durP2;ratioP2;P2;SDS_P1;SDS_P2;PMS_P1;PMS_P2;Temp;Humidity;BMP_temperature;BMP_pressure;BME280_temperature;BME280_humidity;BME280_pressure;Samples;Min_cycle;Max_cycle;Signal;HPM_P1;HPM_P2
2021/06/30 00:00:32;;;;;;;8.07;5.90;;;;;;;29.29;52.69;101098.19;144994;633;5002;-81
2021/06/30 00:02:59;;;;;;;7.50;5.78;;;;;;;29.22;52.95;101099.38;144994;623;5002;-80
2021/06/30 00:05:26;;;;;;;10.80;5.72;;;;;;;29.23;52.68;101103.78;144994;565;5002;-80
2021/06/30 00:07:53;;;;;;;8.60;5.90;;;;;;;29.13;50.90;101103.28;144994;602;5002;-80
2021/06/30 00:10:19;;;;;;;9.07;5.70;;;;;;;29.16;52.72;101099.59;144994;613;5002;-80
2021/06/30 00:12:45;;;;;;;9.38;5.90;;;;;;;29.19;52.22;101099.50;144994;690;5003;-79
2021/06/30 00:15:17;;;;;;;10.13;6.30;;;;;;;29.22;52.40;101102.91;144994;646;5002;-80
2021/06/30 00:17:47;;;;;;;8.70;5.82;;;;;;;29.25;52.38;101100.09;144994;606;5002;-80
2021/06/30 00:20:14;;;;;;;7.20;5.45;;;;;;;29.27;52.66;101106.28;144994;569;5003;-80
2021/06/30 00:22:42;;;;;;;6.43;5.80;;;;;;;29.31;51.79;101098.97;144994;571;5002;-80
2021/06/30 00:25:10;;;;;;;9.93;5.82;;;;;;;29.31;52.31;101104.31;144994;610;5002;-80
2021/06/30 00:27:37;;;;;;;7.78;5.60;;;;;;;29.32;52.21;101095.38;144994;636;5002;-80
2021/06/30 00:30:05;;;;;;;8.50;5.75;;;;;;;29.36;51.81;101098.78;144994;563;5002;-80
2021/06/30 00:32:32;;;;;;;8.80;6.03;;;;;;;29.34;51.99;101092.62;144994;618;5002;-82
2021/06/30 00:34:58;;;;;;;10.00;5.45;;;;;;;29.34;50.80;101103.34;144994;564;5002;-80
2021/06/30 00:37:24;;;;;;;7.80;5.60;;;;;;;29.30;51.32;101097.22;144994;581;5002;-79
2021/06/30 00:39:51;;;;;;;9.38;5.82;;;;;;;29.27;51.94;101095.56;144994;603;5002;-81
2021/06/30 00:42:17;;;;;;;10.13;6.25;;;;;;;29.25;52.09;101092.06;144993;576;5002;-79
2021/06/30 00:44:45;;;;;;;7.78;6.25;;;;;;;29.26;51.73;101096.50;144994;658;5002;-81
2021/06/30 00:47:11;;;;;;;10.13;5.78;;;;;;;29.28;51.40;101093.75;144994;590;5002;-81
2021/06/30 00:49:38;;;;;;;10.30;5.82;;;;;;;29.28;51.47;101094.63;144994;635;5002;-81
2021/06/30 00:52:05;;;;;;;10.45;6.37;;;;;;;29.29;51.18;101092.84;144994;575;5002;-80
2021/06/30 00:54:32;;;;;;;8.52;5.82;;;;;;;29.28;51.05;101099.97;144994;610;5002;-82
2021/06/30 00:56:59;;;;;;;8.63;5.85;;;;;;;29.27;50.85;101092.91;144994;679;5002;-80
2021/06/30 00:59:26;;;;;;;11.32;6.40;;;;;;;29.24;50.76;101100.16;144994;611;5002;-79
2021/06/30 01:01:53;;;;;;;10.05;5.70;;;;;;;29.20;50.58;101098.56;144994;585;5002;-80
2021/06/30 01:04:19;;;;;;;8.23;5.55;;;;;;;29.12;51.21;101102.38;144994;585;5002;-79
2021/06/30 01:06:46;;;;;;;8.02;5.30;;;;;;;29.11;51.08;101108.69;144994;583;5002;-79
2021/06/30 01:09:13;;;;;;;5.95;5.18;;;;;;;29.10;51.40;101111.41;144994;676;5002;-80
2021/06/30 01:11:41;;;;;;;10.40;5.40;;;;;;;29.09;51.02;101115.88;144994;568;5002;-81
2021/06/30 01:14:07;;;;;;;8.93;5.62;;;;;;;29.11;51.02;101122.03;144993;699;5002;-80
2021/06/30 01:16:34;;;;;;;7.47;5.43;;;;;;;29.12;50.91;101120.22;144994;575;5002;-79
2021/06/30 01:19:00;;;;;;;11.80;5.97;;;;;;;29.13;51.02;101111.28;144994;669;5002;-80
2021/06/30 01:21:27;;;;;;;8.20;5.68;;;;;;;29.14;51.14;101126.38;144994;564;5002;-79
2021/06/30 01:23:54;;;;;;;7.18;5.68;;;;;;;29.15;50.58;101120.09;144994;590;5002;-80
2021/06/30 01:26:20;;;;;;;8.18;5.85;;;;;;;29.11;50.67;101123.84;144994;634;5002;-81
2021/06/30 01:28:47;;;;;;;9.40;5.85;;;;;;;29.10;50.82;101132.81;144994;586;5002;-80
2021/06/30 01:31:15;;;;;;;7.55;5.60;;;;;;;29.15;51.04;101129.94;144994;576;5002;-80
2021/06/30 01:33:42;;;;;;;6.75;5.50;;;;;;;29.20;50.59;101131.50;144994;627;5002;-80
2021/06/30 01:36:08;;;;;;;9.98;5.80;;;;;;;29.23;50.57;101131.38;144994;617;5002;-79
2021/06/30 01:38:35;;;;;;;7.82;5.65;;;;;;;29.24;50.27;101118.87;144994;666;5002;-80
2021/06/30 01:41:02;;;;;;;8.82;5.43;;;;;;;29.23;49.72;101118.00;144994;665;5002;-82
2021/06/30 01:43:28;;;;;;;8.05;5.72;;;;;;;29.16;50.11;101116.50;144994;564;5002;-79
2021/06/30 01:45:55;;;;;;;7.07;5.90;;;;;;;29.15;50.35;101113.91;144994;676;5002;-80
2021/06/30 01:48:22;;;;;;;7.78;5.55;;;;;;;29.14;49.79;101121.03;144994;597;5002;-80
2021/06/30 01:50:49;;;;;;;8.02;5.78;;;;;;;29.13;49.97;101116.62;144994;575;5002;-80
2021/06/30 01:53:18;;;;;;;10.00;5.65;;;;;;;29.13;49.93;101127.34;144994;690;5002;-80
2021/06/30 01:55:44;;;;;;;11.30;5.85;;;;;;;29.12;49.66;101115.75;144993;572;5002;-80
2021/06/30 01:58:11;;;;;;;7.82;6.10;;;;;;;29.12;49.85;101121.09;144993;569;5002;-81
2021/06/30 02:00:38;;;;;;;7.20;6.10;;;;;;;29.11;49.97;101123.84;144994;597;5002;-80
2021/06/30 02:03:04;;;;;;;9.35;5.70;;;;;;;29.06;49.79;101129.38;144994;605;5002;-79
2021/06/30 02:05:32;;;;;;;9.70;6.25;;;;;;;29.05;49.75;101122.28;144994;589;5002;-79
2021/06/30 02:08:02;;;;;;;9.10;6.12;;;;;;;29.06;50.32;101120.47;144994;690;5002;-80
2021/06/30 02:10:29;;;;;;;8.25;5.57;;;;;;;29.06;50.25;101124.00;144994;701;5002;-80
2021/06/30 02:12:57;;;;;;;8.43;5.82;;;;;;;29.07;49.72;101128.44;144994;578;5002;-80
2021/06/30 02:15:26;;;;;;;9.93;5.40;;;;;;;29.04;50.15;101125.03;144994;564;5002;-79
2021/06/30 02:17:53;;;;;;;6.57;5.15;;;;;;;29.04;50.19;101127.72;144994;582;5002;-80
2021/06/30 02:20:21;;;;;;;9.35;5.60;;;;;;;29.05;49.86;101127.66;144994;575;5002;-79
2021/06/30 02:22:50;;;;;;;8.68;5.87;;;;;;;29.07;49.85;101133.78;144994;563;5002;-78
2021/06/30 02:25:26;;;;;;;9.50;5.62;;;;;;;29.13;49.89;101138.87;144994;634;5002;-81
2021/06/30 02:27:54;;;;;;;8.15;5.93;;;;;;;29.20;49.73;101139.53;144994;664;5002;-86
2021/06/30 02:30:27;;;;;;;10.00;5.47;;;;;;;29.26;49.71;101151.78;144994;701;5002;-80
2021/06/30 02:33:00;;;;;;;7.28;5.45;;;;;;;29.33;49.40;101158.59;144994;600;5002;-80
2021/06/30 02:35:29;;;;;;;9.27;6.43;;;;;;;29.29;49.91;101155.19;144994;569;5002;-81
2021/06/30 02:37:59;;;;;;;9.05;5.47;;;;;;;29.26;47.71;101151.78;144994;586;5002;-79
2021/06/30 02:40:28;;;;;;;7.30;5.50;;;;;;;29.24;49.24;101162.53;144994;637;5002;-80
2021/06/30 02:42:57;;;;;;;10.45;5.57;;;;;;;29.33;49.21;101171.09;144994;564;5002;-79
2021/06/30 02:45:26;;;;;;;10.82;5.40;;;;;;;29.35;49.29;101171.91;144994;623;5002;-80
2021/06/30 02:47:56;;;;;;;8.05;5.78;;;;;;;29.38;49.23;101174.44;144994;712;5002;-79
2021/06/30 02:50:27;;;;;;;8.98;5.32;;;;;;;29.42;49.03;101168.91;144994;612;5002;-80
2021/06/30 02:52:54;;;;;;;7.87;5.57;;;;;;;29.44;49.14;101169.69;144994;646;5002;-80
2021/06/30 02:55:22;;;;;;;6.90;5.37;;;;;;;29.46;49.04;101172.31;144994;588;5002;-80
2021/06/30 02:57:50;;;;;;;10.00;5.62;;;;;;;29.49;48.39;101161.50;144994;581;5002;-82
2021/06/30 03:00:25;;;;;;;8.60;5.07;;;;;;;29.54;48.33;101161.28;144994;566;5002;-83
2021/06/30 03:02:55;;;;;;;11.32;5.62;;;;;;;29.56;48.18;101159.41;144994;565;5002;-82
2021/06/30 03:05:23;;;;;;;10.23;5.32;;;;;;;29.60;47.77;101153.88;144994;592;5002;-82
2021/06/30 03:07:55;;;;;;;9.18;5.50;;;;;;;29.61;47.94;101155.63;144994;594;5002;-81
2021/06/30 03:10:22;;;;;;;12.85;6.10;;;;;;;29.60;47.48;101151.19;144994;565;5002;-81
2021/06/30 03:12:49;;;;;;;7.85;5.50;;;;;;;29.64;47.43;101160.84;144994;603;5002;-83
2021/06/30 03:15:17;;;;;;;12.63;5.82;;;;;;;29.64;47.21;101166.19;144994;569;5002;-81
2021/06/30 03:17:45;;;;;;;12.98;5.97;;;;;;;29.68;46.99;101177.62;144994;607;5002;-83
2021/06/30 03:20:15;;;;;;;10.68;6.10;;;;;;;29.68;47.48;101172.28;144994;628;5002;-79
2021/06/30 03:22:43;;;;;;;11.32;6.37;;;;;;;29.70;47.21;101173.09;144994;572;5002;-84
2021/06/30 03:25:13;;;;;;;9.70;5.97;;;;;;;29.71;47.15;101172.13;144994;566;5002;-79
2021/06/30 03:27:42;;;;;;;9.00;6.12;;;;;;;29.73;47.31;101180.09;144994;565;5002;-80
2021/06/30 03:30:10;;;;;;;8.32;6.12;;;;;;;29.69;46.96;101178.50;144994;611;5002;-82
2021/06/30 03:32:37;;;;;;;12.40;6.35;;;;;;;29.60;47.25;101180.62;144994;601;5002;-81
2021/06/30 03:35:06;;;;;;;10.27;6.25;;;;;;;29.59;47.04;101183.34;144994;564;5002;-80
2021/06/30 03:37:33;;;;;;;10.52;6.25;;;;;;;29.56;47.79;101191.50;144994;569;5002;-81
2021/06/30 03:39:59;;;;;;;13.02;6.60;;;;;;;29.53;47.26;101194.34;144994;612;5002;-80
2021/06/30 03:42:26;;;;;;;11.18;7.12;;;;;;;29.43;47.00;101196.50;144994;635;5002;-80
2021/06/30 03:44:53;;;;;;;11.23;6.47;;;;;;;29.30;47.87;101199.72;144994;600;5002;-79
2021/06/30 03:47:19;;;;;;;11.32;6.72;;;;;;;29.23;47.88;101198.22;144994;569;5002;-80
2021/06/30 03:49:46;;;;;;;9.82;6.53;;;;;;;29.20;47.54;101193.00;144994;576;5002;-80
2021/06/30 03:52:12;;;;;;;13.55;7.25;;;;;;;29.17;47.76;101201.09;144994;619;5002;-79
2021/06/30 03:54:39;;;;;;;9.45;6.15;;;;;;;29.15;48.03;101191.41;144994;569;5002;-80
2021/06/30 03:57:05;;;;;;;12.10;6.35;;;;;;;29.11;47.60;101204.91;144994;658;5002;-80
2021/06/30 03:59:32;;;;;;;10.75;6.20;;;;;;;29.08;48.13;101196.13;144994;564;5002;-80
2021/06/30 04:01:58;;;;;;;16.83;7.45;;;;;;;29.01;47.99;101183.94;144994;606;5002;-80
2021/06/30 04:04:25;;;;;;;14.70;7.60;;;;;;;29.00;48.07;101195.56;144994;669;5002;-80
2021/06/30 04:06:52;;;;;;;17.30;7.50;;;;;;;28.98;48.29;101187.59;144994;576;5002;-80
2021/06/30 04:09:18;;;;;;;13.77;7.57;;;;;;;29.00;48.01;101184.88;144994;689;5002;-80
2021/06/30 04:11:44;;;;;;;19.25;8.10;;;;;;;28.97;48.06;101182.31;144994;613;5002;-80
2021/06/30 04:14:11;;;;;;;17.30;7.80;;;;;;;28.98;48.27;101190.28;144993;588;5002;-79
2021/06/30 04:16:38;;;;;;;17.92;7.85;;;;;;;29.00;48.50;101184.88;144993;655;5002;-80
2021/06/30 04:19:04;;;;;;;18.80;7.50;;;;;;;29.01;48.52;101174.12;144994;565;5002;-79
2021/06/30 04:21:31;;;;;;;22.85;8.27;;;;;;;29.03;48.40;101177.62;144994;678;5002;-81
2021/06/30 04:23:57;;;;;;;14.13;7.20;;;;;;;29.05;48.52;101177.53;144994;734;5002;-82
2021/06/30 04:26:24;;;;;;;17.25;7.47;;;;;;;29.07;48.90;101184.56;144994;580;5002;-80
2021/06/30 04:28:50;;;;;;;17.02;8.30;;;;;;;29.09;48.77;101182.69;144994;576;5002;-79
2021/06/30 04:31:16;;;;;;;15.55;7.55;;;;;;;29.12;48.93;101181.72;144994;564;4568;-80
2021/06/30 04:33:43;;;;;;;19.00;7.97;;;;;;;29.13;49.25;101188.81;144994;581;4572;-79
2021/06/30 04:36:09;;;;;;;17.85;7.87;;;;;;;29.15;49.10;101184.25;144994;590;4573;-79
2021/06/30 04:38:36;;;;;;;14.90;7.45;;;;;;;29.19;49.05;101187.69;144992;576;6002;-79
2021/06/30 04:41:02;;;;;;;26.17;7.82;;;;;;;29.20;49.43;101198.34;144992;690;6002;-79
2021/06/30 04:43:29;;;;;;;16.83;6.68;;;;;;;29.24;49.00;101194.62;144992;563;6002;-79
2021/06/30 04:45:55;;;;;;;12.05;6.47;;;;;;;29.24;49.31;101199.06;144992;580;6002;-79
2021/06/30 04:48:22;;;;;;;16.90;7.07;;;;;;;29.20;49.41;101200.16;144992;569;6002;-80
2021/06/30 04:50:48;;;;;;;10.68;7.07;;;;;;;29.21;49.64;101212.59;144992;669;6002;-80
2021/06/30 04:53:15;;;;;;;12.02;6.53;;;;;;;29.18;49.37;101213.53;144992;685;6002;-80
2021/06/30 04:55:41;;;;;;;10.18;6.72;;;;;;;29.17;49.60;101214.47;144992;628;6002;-81
2021/06/30 04:58:08;;;;;;;13.55;6.50;;;;;;;29.22;49.94;101223.19;144992;586;6002;-79
2021/06/30 05:00:35;;;;;;;10.05;7.20;;;;;;;29.28;50.32;101222.09;144992;565;6002;-79
2021/06/30 05:03:01;;;;;;;8.88;6.40;;;;;;;29.31;50.02;101230.84;144992;589;6002;-80
2021/06/30 05:05:28;;;;;;;11.82;6.68;;;;;;;29.31;50.50;101238.00;144992;605;6002;-80
2021/06/30 05:07:55;;;;;;;16.15;7.82;;;;;;;29.30;50.36;101242.50;144992;576;6002;-80
2021/06/30 05:10:21;;;;;;;12.57;7.37;;;;;;;29.34;50.34;101239.69;144992;733;6002;-81
2021/06/30 05:12:48;;;;;;;13.80;7.20;;;;;;;29.41;50.26;101243.84;144992;589;6002;-80
2021/06/30 05:15:14;;;;;;;13.55;6.85;;;;;;;29.49;50.12;101249.75;144992;573;6002;-79
2021/06/30 05:17:41;;;;;;;20.15;7.37;;;;;;;29.56;50.08;101250.34;144992;570;6002;-80
2021/06/30 05:20:08;;;;;;;13.45;7.57;;;;;;;29.61;50.17;101251.91;144992;585;6002;-80
2021/06/30 05:22:34;;;;;;;21.23;6.80;;;;;;;29.63;49.91;101252.72;144992;679;6002;-80
2021/06/30 05:25:01;;;;;;;12.05;6.85;;;;;;;29.66;49.60;101260.63;144992;612;6002;-80
2021/06/30 05:27:28;;;;;;;13.75;6.90;;;;;;;29.72;49.69;101254.16;144992;604;6002;-80
2021/06/30 05:29:54;;;;;;;12.18;6.85;;;;;;;29.75;49.53;101263.84;144991;582;6002;-79
2021/06/30 05:32:21;;;;;;;17.48;7.90;;;;;;;29.78;49.42;101255.69;144991;578;6002;-80
2021/06/30 05:34:47;;;;;;;13.50;7.25;;;;;;;29.79;49.74;101255.66;144991;569;6002;-80
2021/06/30 05:37:14;;;;;;;15.25;7.10;;;;;;;29.85;49.74;101255.38;144991;595;6002;-80
2021/06/30 05:39:40;;;;;;;17.27;7.15;;;;;;;29.92;49.24;101249.78;144991;565;6002;-80
2021/06/30 05:42:07;;;;;;;14.35;7.47;;;;;;;29.98;49.21;101253.06;144992;590;6002;-79
2021/06/30 05:44:34;;;;;;;14.40;7.57;;;;;;;30.07;49.15;101251.81;144992;595;6002;-81
2021/06/30 05:47:00;;;;;;;15.57;8.65;;;;;;;30.10;49.36;101256.12;144992;681;6002;-81
2021/06/30 05:49:26;;;;;;;13.02;7.78;;;;;;;30.12;49.24;101257.81;144992;672;6002;-80
2021/06/30 05:51:53;;;;;;;13.50;8.25;;;;;;;30.17;49.44;101266.50;144992;569;6002;-80
2021/06/30 05:54:19;;;;;;;14.32;8.13;;;;;;;30.25;49.32;101263.50;144992;591;6003;-79
2021/06/30 05:56:47;;;;;;;15.80;8.13;;;;;;;30.26;48.95;101270.59;144992;569;6002;-80
2021/06/30 05:59:14;;;;;;;18.65;9.55;;;;;;;30.19;49.59;101271.78;144992;579;6002;-80
2021/06/30 06:01:41;;;;;;;15.07;8.30;;;;;;;30.15;49.08;101267.53;144992;569;6002;-80
2021/06/30 06:04:08;;;;;;;13.52;8.05;;;;;;;30.09;49.48;101275.81;144992;602;6002;-80
2021/06/30 06:06:34;;;;;;;13.20;7.95;;;;;;;30.14;49.92;101276.50;144992;611;6002;-80
2021/06/30 06:09:01;;;;;;;10.45;6.70;;;;;;;30.17;49.72;101282.56;144992;627;6002;-81
2021/06/30 06:11:27;;;;;;;13.82;5.90;;;;;;;30.25;49.53;101289.41;144992;581;6002;-80
2021/06/30 06:13:54;;;;;;;10.98;5.93;;;;;;;30.25;49.34;101289.41;144992;635;6002;-81
2021/06/30 06:16:22;;;;;;;9.02;5.35;;;;;;;30.15;49.70;101280.91;144992;624;6002;-79
2021/06/30 06:18:49;;;;;;;8.07;5.62;;;;;;;30.26;49.63;101278.63;144992;570;6002;-79
2021/06/30 06:21:16;;;;;;;10.52;6.00;;;;;;;30.37;49.50;101275.50;144992;590;6002;-81
2021/06/30 06:23:43;;;;;;;8.95;5.78;;;;;;;30.50;49.13;101283.88;144992;569;6002;-84
2021/06/30 06:26:12;;;;;;;11.12;6.37;;;;;;;30.62;48.75;101283.28;144992;568;6002;-80
2021/06/30 06:28:38;;;;;;;14.60;7.07;;;;;;;30.74;49.15;101279.19;144992;580;6002;-78
2021/06/30 06:31:12;;;;;;;13.93;8.18;;;;;;;30.86;48.34;101264.34;144992;621;6002;-81
2021/06/30 06:33:40;;;;;;;9.77;6.13;;;;;;;30.98;48.43;101266.50;144992;590;6002;-82
2021/06/30 06:36:10;;;;;;;12.55;5.87;;;;;;;31.07;47.71;101271.44;144992;590;6002;-81
2021/06/30 06:38:38;;;;;;;8.25;5.40;;;;;;;31.04;47.69;101268.03;144991;585;6002;-80
2021/06/30 06:41:05;;;;;;;13.88;5.70;;;;;;;31.06;48.08;101266.12;144992;600;6002;-80
2021/06/30 06:43:33;;;;;;;11.15;5.68;;;;;;;31.07;45.85;101266.06;144992;621;6002;-82
2021/06/30 06:46:00;;;;;;;10.18;6.15;;;;;;;30.80;45.41;101260.16;144992;628;6002;-80
2021/06/30 06:48:27;;;;;;;12.15;6.28;;;;;;;30.79;47.54;101257.56;144992;573;6002;-81
2021/06/30 06:50:53;;;;;;;13.07;6.20;;;;;;;30.84;48.11;101260.87;144992;580;6002;-80
2021/06/30 06:53:20;;;;;;;10.88;6.28;;;;;;;30.81;46.02;101263.69;144992;641;6002;-87
2021/06/30 06:55:48;;;;;;;8.32;5.47;;;;;;;30.89;47.69;101266.88;144992;611;6002;-80
2021/06/30 06:58:18;;;;;;;7.78;5.60;;;;;;;31.09;46.95;101260.63;144992;595;6002;-80
2021/06/30 07:00:45;;;;;;;10.02;6.03;;;;;;;31.18;47.07;101270.03;144992;657;6002;-80
2021/06/30 07:03:11;;;;;;;8.50;5.97;;;;;;;31.21;46.51;101270.78;144992;623;6002;-80
2021/06/30 07:05:37;;;;;;;10.77;5.97;;;;;;;31.12;46.99;101273.87;144992;569;6002;-81
2021/06/30 07:08:05;;;;;;;8.55;5.70;;;;;;;31.22;47.15;101263.59;144992;605;6002;-81
2021/06/30 07:10:32;;;;;;;9.93;5.57;;;;;;;31.16;47.63;101264.72;144992;576;6002;-80
2021/06/30 07:12:58;;;;;;;8.35;5.85;;;;;;;31.04;47.54;101274.25;144992;569;6002;-80
2021/06/30 07:15:25;;;;;;;9.23;6.32;;;;;;;30.67;47.76;101272.38;144992;575;6002;-81
2021/06/30 07:17:51;;;;;;;10.43;6.10;;;;;;;30.73;48.08;101270.31;144992;632;6002;-81
2021/06/30 07:20:18;;;;;;;8.25;6.03;;;;;;;30.87;48.07;101276.81;144992;563;6002;-80
2021/06/30 07:22:44;;;;;;;6.70;5.78;;;;;;;30.86;48.19;101269.72;144992;591;6002;-80
2021/06/30 07:25:12;;;;;;;10.57;6.47;;;;;;;30.84;48.67;101259.06;144992;594;6002;-80
2021/06/30 07:27:39;;;;;;;10.75;5.57;;;;;;;30.93;47.59;101268.50;144992;580;6002;-81
2021/06/30 07:30:06;;;;;;;7.45;5.70;;;;;;;30.91;47.86;101270.38;144992;563;6002;-80
2021/06/30 07:32:33;;;;;;;12.15;6.47;;;;;;;30.91;48.21;101270.38;144992;583;6002;-80
2021/06/30 07:34:59;;;;;;;12.60;6.93;;;;;;;30.88;48.08;101270.53;144992;565;6002;-80
2021/06/30 07:37:26;;;;;;;11.18;6.10;;;;;;;30.88;47.48;101265.16;144992;581;6002;-80
2021/06/30 07:39:52;;;;;;;10.88;6.68;;;;;;;30.86;48.23;101256.31;144992;590;6002;-80
2021/06/30 07:42:18;;;;;;;8.23;4.55;;;;;;;30.88;47.53;101257.13;144992;580;6002;-80
2021/06/30 07:44:46;;;;;;;5.97;5.37;;;;;;;30.94;46.55;101256.81;144992;624;6002;-80
2021/06/30 07:47:12;;;;;;;9.30;5.10;;;;;;;30.88;46.86;101258.00;144992;593;6002;-80
2021/06/30 07:49:39;;;;;;;8.32;5.40;;;;;;;30.79;46.41;101250.37;144992;578;6002;-80
2021/06/30 07:52:06;;;;;;;8.27;5.37;;;;;;;30.82;46.42;101252.91;144992;600;6002;-80
2021/06/30 07:54:33;;;;;;;7.78;5.22;;;;;;;30.83;46.60;101249.31;144992;581;6002;-81
2021/06/30 07:57:00;;;;;;;10.80;5.60;;;;;;;30.89;46.51;101243.66;144992;577;6002;-80
2021/06/30 07:59:27;;;;;;;7.20;5.40;;;;;;;30.93;45.91;101239.00;144992;591;6002;-80
2021/06/30 08:01:53;;;;;;;8.43;5.22;;;;;;;30.96;46.10;101244.25;144992;581;6002;-79
2021/06/30 08:04:20;;;;;;;9.45;5.12;;;;;;;30.91;46.23;101248.94;144992;578;6002;-80
2021/06/30 08:06:46;;;;;;;6.82;5.30;;;;;;;30.94;46.48;101238.06;144992;566;6002;-81
2021/06/30 08:09:13;;;;;;;7.93;5.35;;;;;;;31.03;46.02;101237.66;144992;580;6003;-80
2021/06/30 08:11:39;;;;;;;10.55;5.50;;;;;;;31.02;46.35;101233.25;144992;581;6002;-80
2021/06/30 08:14:05;;;;;;;10.02;5.35;;;;;;;31.12;46.27;101231.00;144992;609;6002;-81
2021/06/30 08:16:32;;;;;;;8.88;5.32;;;;;;;31.11;45.25;101231.91;144992;593;6002;-79
2021/06/30 08:18:58;;;;;;;7.03;5.60;;;;;;;31.04;46.09;101228.69;144992;595;6002;-80
2021/06/30 08:21:25;;;;;;;7.53;4.95;;;;;;;31.08;45.32;101235.59;144991;591;6002;-80
2021/06/30 08:23:51;;;;;;;9.60;5.12;;;;;;;30.98;45.63;101223.59;144992;576;6002;-80
2021/06/30 08:26:19;;;;;;;5.75;4.97;;;;;;;30.91;44.04;101220.31;144992;602;6002;-80
2021/06/30 08:28:47;;;;;;;7.47;4.82;;;;;;;30.99;43.77;101217.31;144992;601;6002;-80
2021/06/30 08:31:13;;;;;;;6.87;4.85;;;;;;;30.95;44.24;101221.03;144992;611;6002;-85
2021/06/30 08:33:40;;;;;;;7.62;5.22;;;;;;;30.90;44.72;101212.34;144992;627;6002;-80
2021/06/30 08:36:07;;;;;;;10.70;5.30;;;;;;;30.92;45.17;101219.34;144992;594;6002;-80
2021/06/30 08:38:33;;;;;;;9.20;5.57;;;;;;;30.84;46.44;101224.22;144992;570;6002;-81
2021/06/30 08:41:00;;;;;;;6.00;5.15;;;;;;;30.80;47.68;101208.34;144992;583;6002;-80
2021/06/30 08:43:27;;;;;;;8.57;5.50;;;;;;;30.81;46.85;101210.09;144992;576;6002;-80
2021/06/30 08:45:54;;;;;;;7.32;4.95;;;;;;;30.86;47.75;101208.06;144992;586;6002;-82
2021/06/30 08:48:21;;;;;;;9.23;5.30;;;;;;;30.82;48.13;101201.12;144992;590;6002;-81
2021/06/30 08:50:48;;;;;;;9.30;5.82;;;;;;;30.88;47.34;101199.03;144992;585;6002;-81
2021/06/30 08:53:15;;;;;;;6.60;5.22;;;;;;;30.90;47.21;101197.13;144992;563;6002;-80
2021/06/30 08:55:46;;;;;;;10.38;5.53;;;;;;;30.76;49.33;101196.94;144992;570;6002;-80
2021/06/30 08:58:14;;;;;;;7.85;5.47;;;;;;;30.75;48.36;101192.50;144992;573;6002;-81
2021/06/30 09:00:42;;;;;;;7.68;5.70;;;;;;;30.71;49.25;101185.56;144992;572;6002;-81
2021/06/30 09:03:17;;;;;;;6.82;5.12;;;;;;;30.64;49.34;101178.75;144992;581;6002;-82
2021/06/30 09:08:59;;;;;;;7.47;5.60;;;;;;;30.66;49.82;101176.88;144992;627;6005;-80
2021/06/30 09:11:27;;;;;;;8.15;5.40;;;;;;;30.62;51.62;101176.13;144992;588;6002;-80
2021/06/30 09:14:20;;;;;;;10.27;6.10;;;;;;;30.56;51.87;101188.03;144992;612;6002;-80
2021/06/30 09:17:16;;;;;;;12.55;8.10;;;;;;;30.59;51.34;101192.34;144992;567;6004;-80
2021/06/30 09:19:54;;;;;;;9.77;6.70;;;;;;;30.77;50.47;101190.63;144992;571;6004;-82
2021/06/30 09:22:24;;;;;;;8.00;6.00;;;;;;;30.94;49.85;101192.47;144992;605;6004;-80
2021/06/30 09:24:51;;;;;;;13.15;8.68;;;;;;;30.95;50.73;101191.56;144992;621;6004;-79
2021/06/30 09:27:19;;;;;;;11.38;8.70;;;;;;;31.00;49.97;101192.22;144992;557;6004;-80
2021/06/30 09:29:46;;;;;;;9.77;6.78;;;;;;;31.08;50.80;101190.03;144992;585;6004;-81
2021/06/30 09:32:15;;;;;;;8.80;5.72;;;;;;;31.09;50.79;101183.75;144992;633;6004;-79
2021/06/30 09:34:42;;;;;;;9.02;5.68;;;;;;;31.04;50.72;101179.56;144992;680;6004;-81
2021/06/30 09:37:10;;;;;;;5.12;4.62;;;;;;;30.95;51.09;101182.66;144992;567;6004;-80
2021/06/30 09:39:53;;;;;;;6.22;4.93;;;;;;;30.92;50.95;101184.50;144992;594;6004;-80
2021/06/30 09:42:20;;;;;;;9.57;5.32;;;;;;;30.78;51.96;101178.09;144992;687;6004;-81
2021/06/30 09:44:47;;;;;;;6.62;5.43;;;;;;;30.80;51.22;101185.13;144992;575;6004;-78
2021/06/30 09:47:13;;;;;;;6.75;5.07;;;;;;;30.75;51.29;101182.66;144991;614;6000;-81
2021/06/30 09:49:41;;;;;;;7.97;5.90;;;;;;;30.78;51.69;101178.09;144992;592;6002;-81
2021/06/30 09:52:19;;;;;;;6.55;5.12;;;;;;;30.91;51.33;101177.44;144992;617;6002;-80
2021/06/30 09:54:48;;;;;;;6.25;5.62;;;;;;;30.98;50.49;101183.41;144992;598;6002;-81
2021/06/30 09:57:17;;;;;;;6.43;5.35;;;;;;;30.97;51.09;101170.06;144992;596;6002;-80
2021/06/30 09:59:46;;;;;;;9.50;5.50;;;;;;;31.00;50.76;101172.59;144991;628;6002;-82
2021/06/30 10:02:18;;;;;;;8.75;6.20;;;;;;;31.00;51.09;101167.25;144992;603;6002;-82
2021/06/30 10:04:49;;;;;;;7.95;5.60;;;;;;;30.98;50.78;101170.00;144992;589;6002;-80
2021/06/30 10:07:22;;;;;;;9.05;5.87;;;;;;;31.06;50.16;101167.81;144992;569;6002;-80
2021/06/30 10:10:05;;;;;;;7.85;5.57;;;;;;;31.04;50.16;101169.69;144992;596;6002;-81
2021/06/30 10:12:34;;;;;;;6.03;5.07;;;;;;;31.04;50.18;101167.03;144992;572;6002;-81
2021/06/30 10:15:03;;;;;;;8.88;5.40;;;;;;;31.05;49.88;101163.41;144992;581;6002;-80
2021/06/30 10:17:30;;;;;;;6.28;4.97;;;;;;;31.03;49.72;101165.28;144992;575;6002;-81
2021/06/30 10:19:59;;;;;;;7.05;4.95;;;;;;;31.05;49.36;101160.72;144992;593;6002;-80
2021/06/30 10:22:27;;;;;;;14.23;6.05;;;;;;;31.04;48.48;101164.34;144992;677;6002;-80
2021/06/30 10:24:55;;;;;;;6.50;5.50;;;;;;;31.15;48.24;101154.88;144992;592;6002;-81
2021/06/30 10:27:22;;;;;;;7.15;5.45;;;;;;;31.15;48.30;101146.84;144992;615;6002;-80
2021/06/30 10:29:57;;;;;;;9.10;5.90;;;;;;;31.22;48.63;101143.78;144992;594;6002;-80
2021/06/30 10:32:24;;;;;;;9.07;4.85;;;;;;;31.47;46.56;101139.88;144992;564;6002;-79
2021/06/30 10:34:54;;;;;;;8.32;4.90;;;;;;;31.46;46.47;101138.97;144992;578;6002;-81
2021/06/30 10:37:38;;;;;;;6.95;4.12;;;;;;;31.37;43.63;101128.75;144992;589;6002;-81
2021/06/30 10:40:15;;;;;;;6.93;4.32;;;;;;;31.38;44.82;101126.91;144992;591;6004;-80
2021/06/30 10:42:47;;;;;;;7.35;4.53;;;;;;;31.29;45.45;101121.09;144992;571;6004;-80
2021/06/30 10:45:23;;;;;;;7.93;4.93;;;;;;;31.33;45.96;101123.59;144992;580;6004;-80
2021/06/30 10:48:16;;;;;;;7.75;5.50;;;;;;;31.18;46.38;101115.41;144992;573;6004;-81
2021/06/30 10:50:44;;;;;;;7.03;4.57;;;;;;;31.27;48.32;101112.22;144992;648;6002;-81
2021/06/30 10:53:35;;;;;;;7.22;4.10;;;;;;;31.35;45.90;101114.50;144993;634;6002;-81
2021/06/30 10:56:06;;;;;;;7.07;4.55;;;;;;;31.38;46.91;101106.31;144993;636;6000;-81
2021/06/30 10:58:32;;;;;;;8.98;4.75;;;;;;;31.35;47.50;101111.84;144992;585;6002;-81
2021/06/30 11:01:11;;;;;;;6.20;4.60;;;;;;;31.31;47.05;101106.69;144993;580;6002;-80
2021/06/30 11:03:48;;;;;;;6.90;4.90;;;;;;;31.24;47.64;101101.69;144993;616;6000;-80
2021/06/30 11:06:35;;;;;;;6.53;4.93;;;;;;;31.22;47.19;101103.56;144993;629;6002;-80
2021/06/30 11:09:24;;;;;;;7.15;4.93;;;;;;;31.37;48.06;101099.25;144993;568;6000;-81
2021/06/30 11:11:55;;;;;;;7.25;4.10;;;;;;;31.46;46.77;101088.00;144993;643;6002;-81
2021/06/30 11:14:37;;;;;;;6.82;4.30;;;;;;;31.60;45.38;101091.84;144993;617;6002;-80
2021/06/30 11:17:04;;;;;;;7.20;4.10;;;;;;;31.69;45.67;101088.66;144993;570;6002;-80
2021/06/30 11:19:41;;;;;;;4.75;4.00;;;;;;;31.81;45.12;101081.75;144993;620;6002;-83
2021/06/30 11:22:20;;;;;;;6.97;3.90;;;;;;;31.85;43.19;101083.34;144993;582;6002;-81
2021/06/30 11:24:49;;;;;;;4.62;3.75;;;;;;;31.93;44.40;101083.78;144992;569;6002;-82
2021/06/30 11:27:36;;;;;;;5.70;3.95;;;;;;;31.86;44.13;101073.47;144992;681;6002;-79
2021/06/30 11:30:08;;;;;;;4.65;3.53;;;;;;;32.00;43.60;101077.13;144992;730;6000;-81
2021/06/30 11:32:45;;;;;;;4.87;3.60;;;;;;;31.87;43.25;101075.22;144992;602;6000;-80
2021/06/30 11:35:23;;;;;;;6.37;4.40;;;;;;;31.81;44.34;101076.41;144992;591;6004;-80
2021/06/30 11:37:58;;;;;;;8.43;4.95;;;;;;;31.88;44.27;101071.56;144993;700;6000;-80